Mengxian, China
Current Conditions -  °F | °C
As of 10:00 AM on Monday 29 Dec 2014 (Local Time) from ZHCC Reporting Station
Haze Haze  
Wind Chill: 48°   Ceiling: Unl
Heat Index: 48°   Visibility: 1.8mi
Dew Point: 18°   Wind: 2mph
Humidity: 30%   Direction: NA
Pressure: 30.06"   Gusts: NA
Location:  34.9°N, 112.78°E
Report Text: ZHCC 290200Z VRB01MPS 3000 HZ NSC 09/M08 Q1018 NOSIG
Loading
Personal Weather Stations






























Interactive Weather Map New forecast layout! Learn more

10-Day Weather Forecast

Advertisements
Track Severe Weather on mobile